Time;durP1;ratioP1;P1;durP2;ratioP2;P2;SDS_P1;SDS_P2;PMS_P1;PMS_P2;Temp;Humidity;BMP_temperature;BMP_pressure;BME280_temperature;BME280_humidity;BME280_pressure;Samples;Min_cycle;Max_cycle;Signal;HPM_P1;HPM_P2
2023/01/14 00:02:03;;;;;;;17.03;2.60;;;9.20;99.90;;;;;;5070847;28;20683;-66
2023/01/14 00:04:29;;;;;;;28.33;3.47;;;9.30;99.90;;;;;;5070690;28;20170;-67
2023/01/14 00:06:54;;;;;;;23.03;2.93;;;9.30;99.90;;;;;;5070925;28;20587;-66
2023/01/14 00:09:20;;;;;;;22.03;3.20;;;9.30;99.90;;;;;;5070775;28;20200;-66
2023/01/14 00:11:51;;;;;;;17.03;2.90;;;9.40;99.90;;;;;;5070871;28;20176;-67
2023/01/14 00:14:28;;;;;;;18.60;2.30;;;9.40;99.90;;;;;;5070725;28;20168;-66
2023/01/14 00:16:55;;;;;;;20.07;2.70;;;9.40;99.90;;;;;;5070245;28;20615;-66
2023/01/14 00:19:22;;;;;;;14.33;2.10;;;9.50;99.90;;;;;;5052129;28;20332;-65
2023/01/14 00:21:49;;;;;;;20.63;2.20;;;9.50;99.90;;;;;;5070605;28;20216;-66
2023/01/14 00:24:18;;;;;;;9.50;1.90;;;9.60;99.90;;;;;;5070637;28;20264;-66
2023/01/14 00:26:44;;;;;;;13.53;1.73;;;9.60;99.90;;;;;;5070558;28;20195;-66
2023/01/14 00:29:19;;;;;;;13.27;1.47;;;9.70;99.90;;;;;;5070445;28;20172;-66
2023/01/14 00:31:45;;;;;;;5.17;0.80;;;9.60;99.90;;;;;;5070484;28;20237;-66
2023/01/14 00:34:12;;;;;;;7.27;1.30;;;9.60;99.90;;;;;;5070590;28;20172;-67
2023/01/14 00:36:38;;;;;;;16.63;2.40;;;9.70;99.90;;;;;;5052154;28;20501;-66
2023/01/14 00:39:04;;;;;;;10.13;1.50;;;10.50;99.90;;;;;;5052296;28;20541;-66
2023/01/14 00:41:30;;;;;;;10.33;1.70;;;9.70;99.90;;;;;;5069770;28;20207;-68
2023/01/14 00:43:58;;;;;;;11.67;1.40;;;9.70;99.90;;;;;;5070132;28;20533;-67
2023/01/14 00:46:29;;;;;;;10.20;1.60;;;9.80;99.90;;;;;;5062360;28;20195;-66
2023/01/14 00:48:55;;;;;;;7.23;1.30;;;9.80;99.90;;;;;;5069892;28;20176;-66
2023/01/14 00:51:21;;;;;;;14.70;1.50;;;9.80;99.90;;;;;;5054539;28;20185;-66
2023/01/14 00:53:48;;;;;;;8.53;1.40;;;9.70;99.90;;;;;;5050236;28;20165;-65
2023/01/14 00:56:15;;;;;;;10.33;1.40;;;9.80;99.90;;;;;;5062318;28;20218;-68
2023/01/14 00:58:41;;;;;;;15.03;1.60;;;9.80;99.90;;;;;;5069877;28;20251;-66
2023/01/14 01:01:07;;;;;;;6.73;1.30;;;9.80;99.90;;;;;;5069957;28;20313;-65
2023/01/14 01:03:38;;;;;;;6.17;0.93;;;9.80;99.90;;;;;;5069590;28;20733;-64
2023/01/14 01:06:04;;;;;;;8.10;1.70;;;9.80;99.90;;;;;;5069937;28;20169;-65
2023/01/14 01:08:29;;;;;;;7.30;1.30;;;9.80;99.90;;;;;;5069530;28;20184;-65
2023/01/14 01:10:56;;;;;;;9.27;1.10;;;9.80;99.90;;;;;;5069291;28;20550;-67
2023/01/14 01:13:23;;;;;;;4.53;1.03;;;9.70;99.90;;;;;;5069483;28;20172;-67
2023/01/14 01:15:49;;;;;;;6.87;1.07;;;9.80;99.90;;;;;;5069867;28;20176;-67
2023/01/14 01:18:15;;;;;;;2.07;0.37;;;9.70;99.90;;;;;;5069456;28;20225;-67
2023/01/14 01:20:42;;;;;;;7.87;0.80;;;9.90;99.90;;;;;;5069836;28;20541;-67
2023/01/14 01:23:10;;;;;;;5.40;0.87;;;9.80;99.90;;;;;;5069862;28;20207;-67
2023/01/14 01:25:36;;;;;;;9.13;1.03;;;9.80;99.90;;;;;;5069904;28;20237;-67
2023/01/14 01:28:02;;;;;;;9.00;1.40;;;9.80;99.90;;;;;;5069878;28;20261;-67
2023/01/14 01:30:27;;;;;;;7.83;1.30;;;9.70;99.90;;;;;;5070201;28;20168;-68
2023/01/14 01:32:54;;;;;;;5.33;0.73;;;9.80;99.90;;;;;;5072450;28;20251;-67
2023/01/14 01:35:22;;;;;;;4.53;1.00;;;9.80;99.90;;;;;;5073513;28;20169;-67
2023/01/14 01:37:47;;;;;;;6.07;1.10;;;9.90;99.90;;;;;;5073578;28;20684;-60
2023/01/14 01:40:13;;;;;;;5.37;0.73;;;9.90;99.90;;;;;;5073509;28;20185;-67
2023/01/14 01:43:01;;;;;;;3.53;0.57;;;9.90;99.90;;;;;;5071138;28;20200;-68
2023/01/14 01:45:43;;;;;;;3.53;0.50;;;9.90;99.90;;;;;;5070530;28;20547;-68
2023/01/14 01:48:16;;;;;;;3.50;0.63;;;10.00;99.90;;;;;;5073380;28;20176;-68
2023/01/14 01:50:44;;;;;;;6.60;0.90;;;10.00;99.90;;;;;;5067724;28;20181;-67
2023/01/14 01:53:11;;;;;;;4.17;0.70;;;10.10;99.90;;;;;;5068191;28;20189;-66
2023/01/14 01:55:40;;;;;;;2.73;0.40;;;10.00;99.90;;;;;;5073106;28;20178;-66
2023/01/14 01:58:06;;;;;;;1.57;0.43;;;10.10;99.90;;;;;;5073079;28;20181;-68
2023/01/14 02:00:32;;;;;;;3.80;0.50;;;10.10;99.90;;;;;;5072826;28;20172;-67
2023/01/14 02:03:02;;;;;;;4.40;0.60;;;10.10;99.90;;;;;;5072037;28;20357;-68
2023/01/14 02:05:29;;;;;;;3.20;0.33;;;10.20;99.90;;;;;;5072348;28;20172;-67
2023/01/14 02:07:57;;;;;;;1.40;0.50;;;10.10;99.90;;;;;;5073050;28;20389;-69
2023/01/14 02:10:41;;;;;;;2.00;0.40;;;10.10;99.90;;;;;;5072486;28;20180;-68
2023/01/14 02:13:26;;;;;;;4.53;0.70;;;10.10;99.90;;;;;;5071973;28;20246;-68
2023/01/14 02:16:13;;;;;;;1.97;0.43;;;10.10;99.90;;;;;;5072158;28;20176;-67
2023/01/14 02:18:57;;;;;;;2.07;0.47;;;10.10;99.90;;;;;;5072305;28;20212;-68
2023/01/14 02:21:33;;;;;;;4.10;0.70;;;10.10;99.90;;;;;;5072591;28;20176;-68
2023/01/14 02:24:08;;;;;;;6.27;0.70;;;10.10;99.90;;;;;;5072386;28;20271;-68
2023/01/14 02:26:46;;;;;;;1.00;0.40;;;10.20;99.90;;;;;;5072744;28;20202;-69
2023/01/14 02:29:18;;;;;;;1.93;0.53;;;10.30;99.90;;;;;;5072623;28;20179;-69
2023/01/14 02:31:48;;;;;;;6.43;0.90;;;10.40;99.90;;;;;;5072673;28;20169;-63
2023/01/14 02:34:19;;;;;;;2.13;0.70;;;10.30;99.90;;;;;;5054261;28;20177;-63
2023/01/14 02:37:19;;;;;;;3.07;0.50;;;10.40;99.90;;;;;;5072219;28;20177;-69
2023/01/14 02:40:13;;;;;;;1.63;0.47;;;10.20;99.90;;;;;;5023225;28;20238;-67
2023/01/14 02:45:40;;;;;;;3.30;0.30;;;10.30;99.90;;;;;;5072175;28;20196;-67
2023/01/14 02:48:06;;;;;;;5.23;0.60;;;10.40;99.90;;;;;;5071833;28;20182;-67
2023/01/14 02:50:34;;;;;;;4.10;0.63;;;10.40;99.90;;;;;;5071282;28;20192;-68
2023/01/14 02:53:06;;;;;;;2.70;0.33;;;10.40;99.90;;;;;;5071521;28;20263;-68
2023/01/14 02:55:34;;;;;;;2.27;0.43;;;10.50;99.90;;;;;;5071432;28;20177;-69
2023/01/14 02:58:27;;;;;;;0.77;0.40;;;10.50;99.90;;;;;;5071537;28;20172;-68
2023/01/14 03:01:32;;;;;;;8.23;0.60;;;10.50;99.90;;;;;;5071137;28;20184;-69
2023/01/14 03:03:58;;;;;;;3.50;0.40;;;;;;;;;;5060104;28;20287;-69
2023/01/14 03:06:30;;;;;;;4.13;0.40;;;10.60;99.90;;;;;;5053008;28;20260;-65
2023/01/14 03:09:15;;;;;;;4.17;0.60;;;10.60;99.90;;;;;;5070984;28;20274;-66
2023/01/14 03:11:47;;;;;;;2.03;0.53;;;10.60;99.90;;;;;;5070859;28;20306;-66
2023/01/14 03:14:21;;;;;;;2.40;0.30;;;10.60;99.90;;;;;;5071031;28;20177;-66
2023/01/14 03:16:54;;;;;;;0.67;0.30;;;10.60;99.90;;;;;;5070705;28;20180;-66
2023/01/14 03:19:29;;;;;;;2.10;0.37;;;10.70;99.90;;;;;;5070223;28;20192;-66
2023/01/14 03:21:58;;;;;;;2.77;0.37;;;10.70;99.90;;;;;;5070904;28;20337;-65
2023/01/14 03:24:40;;;;;;;4.80;0.30;;;10.70;99.90;;;;;;5070656;28;20215;-66
2023/01/14 03:27:10;;;;;;;3.50;0.67;;;10.60;99.90;;;;;;5068177;28;20180;-66
2023/01/14 03:29:42;;;;;;;3.87;0.47;;;10.60;99.90;;;;;;5070753;28;20214;-66
2023/01/14 03:32:23;;;;;;;3.57;0.40;;;10.70;99.90;;;;;;5071042;28;20188;-66
2023/01/14 03:35:11;;;;;;;4.53;1.13;;;10.70;99.90;;;;;;5063393;28;20200;-69
2023/01/14 03:37:41;;;;;;;4.30;0.60;;;10.70;99.90;;;;;;5068119;28;20180;-69
2023/01/14 03:40:11;;;;;;;5.80;0.40;;;10.80;99.90;;;;;;5070278;28;20208;-68
2023/01/14 03:42:42;;;;;;;4.73;0.40;;;10.80;99.90;;;;;;5070884;28;20209;-69
2023/01/14 03:45:18;;;;;;;2.73;0.40;;;10.70;99.90;;;;;;5070831;28;20196;-66
2023/01/14 03:47:45;;;;;;;5.90;0.50;;;10.70;99.90;;;;;;5070707;28;20645;-68
2023/01/14 03:50:15;;;;;;;5.33;0.50;;;10.70;99.90;;;;;;5070951;28;20207;-68
2023/01/14 03:53:08;;;;;;;9.63;1.03;;;10.70;99.90;;;;;;5070332;28;20635;-68
2023/01/14 03:55:50;;;;;;;6.17;0.53;;;10.60;99.90;;;;;;5070652;28;20172;-68
2023/01/14 03:58:35;;;;;;;2.13;0.67;;;10.70;99.90;;;;;;5070650;28;20239;-66
2023/01/14 04:01:15;;;;;;;7.10;1.00;;;10.70;99.90;;;;;;5070603;28;20173;-68
2023/01/14 04:03:42;;;;;;;4.57;0.53;;;10.70;99.90;;;;;;5052540;28;20207;-68
2023/01/14 04:06:08;;;;;;;5.10;1.10;;;10.70;99.90;;;;;;5052162;28;20550;-68
2023/01/14 04:08:34;;;;;;;3.83;0.50;;;;;;;;;;5070300;28;20172;-67
2023/01/14 04:11:00;;;;;;;7.50;1.07;;;10.60;99.90;;;;;;5069627;28;20546;-68
2023/01/14 04:16:11;;;;;;;5.30;1.33;;;;;;;;;;5070175;28;20229;-69
2023/01/14 04:18:36;;;;;;;2.63;0.57;;;10.70;99.90;;;;;;5069481;28;20248;-68
2023/01/14 04:21:02;;;;;;;2.07;0.40;;;10.70;99.90;;;;;;5069999;28;20173;-68
2023/01/14 04:23:28;;;;;;;4.57;0.80;;;10.70;99.90;;;;;;5070306;28;20674;-68
2023/01/14 04:26:00;;;;;;;8.13;0.93;;;10.60;99.90;;;;;;5070098;28;20221;-67
2023/01/14 04:28:26;;;;;;;7.13;1.10;;;10.70;99.90;;;;;;5062715;28;20200;-67
2023/01/14 04:30:52;;;;;;;5.80;0.90;;;10.80;99.90;;;;;;5060999;28;20628;-67
2023/01/14 04:33:18;;;;;;;4.03;0.70;;;10.70;99.90;;;;;;5067869;28;20180;-69
2023/01/14 04:35:46;;;;;;;6.07;0.73;;;10.60;99.90;;;;;;5065990;28;20561;-68
2023/01/14 04:38:11;;;;;;;4.70;0.93;;;10.80;99.90;;;;;;5057614;28;20281;-66
2023/01/14 04:40:37;;;;;;;6.60;0.60;;;10.90;99.90;;;;;;5069947;28;20172;-68
2023/01/14 04:43:02;;;;;;;2.57;0.60;;;10.90;99.90;;;;;;5069976;28;20238;-67
2023/01/14 04:45:28;;;;;;;4.37;0.73;;;10.90;99.90;;;;;;5069609;28;20215;-68
2023/01/14 04:47:54;;;;;;;4.33;0.73;;;;;;;;;;5070082;28;20312;-67
2023/01/14 04:50:33;;;;;;;2.43;0.67;;;11.20;99.90;;;;;;5069877;28;20623;-68
2023/01/14 04:53:07;;;;;;;6.57;0.57;;;10.90;99.90;;;;;;5070106;28;20169;-68
2023/01/14 04:55:37;;;;;;;5.77;0.93;;;10.80;99.90;;;;;;5069781;28;20199;-67
2023/01/14 04:58:03;;;;;;;9.30;1.27;;;11.00;99.90;;;;;;5069751;28;20647;-67
2023/01/14 05:00:29;;;;;;;2.33;0.60;;;10.80;99.90;;;;;;5069965;28;20302;-67
2023/01/14 05:02:55;;;;;;;3.53;0.50;;;10.90;99.90;;;;;;5069650;28;20624;-67
2023/01/14 05:05:20;;;;;;;4.40;0.53;;;;;;;;;;5071828;28;20179;-67
2023/01/14 05:07:46;;;;;;;4.33;0.57;;;11.00;99.90;;;;;;5073868;28;20184;-68
2023/01/14 05:10:12;;;;;;;3.50;0.57;;;11.20;99.90;;;;;;5073909;28;20173;-68
2023/01/14 05:12:38;;;;;;;4.87;0.77;;;;;;;;;;5073828;28;20630;-68
2023/01/14 05:15:04;;;;;;;3.93;0.43;;;11.00;99.90;;;;;;5073074;28;20218;-69
2023/01/14 05:17:29;;;;;;;3.23;0.80;;;11.00;99.90;;;;;;5073329;28;20220;-68
2023/01/14 05:19:55;;;;;;;6.67;1.10;;;11.00;99.90;;;;;;5073472;28;20183;-67
2023/01/14 05:22:21;;;;;;;4.80;1.00;;;11.00;99.90;;;;;;5073465;28;20227;-68
2023/01/14 05:24:46;;;;;;;8.67;1.03;;;11.00;99.90;;;;;;5065841;28;20200;-68
2023/01/14 05:27:12;;;;;;;5.93;0.90;;;11.00;99.90;;;;;;5072208;28;20212;-68
2023/01/14 05:29:38;;;;;;;5.10;0.77;;;11.10;99.90;;;;;;5061071;28;20191;-68
2023/01/14 05:32:04;;;;;;;6.93;1.20;;;11.00;99.90;;;;;;5062879;28;20177;-67
2023/01/14 05:34:30;;;;;;;6.33;0.93;;;11.00;99.90;;;;;;5073206;28;20215;-67
2023/01/14 05:36:57;;;;;;;8.10;1.10;;;11.10;99.90;;;;;;5073097;28;20250;-67
2023/01/14 05:39:22;;;;;;;5.80;0.80;;;11.10;99.90;;;;;;5072154;28;20173;-68
2023/01/14 05:47:16;;;;;;;3.73;0.63;;;11.30;99.90;;;;;;5073091;28;20229;-67
2023/01/14 05:49:42;;;;;;;9.07;1.00;;;11.30;99.90;;;;;;5055200;28;20580;-67
2023/01/14 05:52:07;;;;;;;2.83;0.60;;;11.30;99.90;;;;;;5073054;28;20260;-66
2023/01/14 05:54:33;;;;;;;8.77;0.67;;;11.30;99.90;;;;;;5072945;28;20631;-67
2023/01/14 05:56:58;;;;;;;4.87;0.73;;;11.40;99.90;;;;;;5073196;28;20161;-66
2023/01/14 05:59:24;;;;;;;7.33;0.87;;;11.40;99.90;;;;;;5073125;28;20184;-67
2023/01/14 06:07:18;;;;;;;2.10;0.90;;;11.50;99.90;;;;;;5073149;28;20211;-66
2023/01/14 06:09:43;;;;;;;3.03;0.60;;;11.50;99.90;;;;;;5072319;28;20549;-67
2023/01/14 06:12:09;;;;;;;4.47;1.17;;;;;;;;;;5054810;28;20187;-67
2023/01/14 06:14:35;;;;;;;5.30;0.90;;;11.50;99.90;;;;;;5072287;28;20717;-67
2023/01/14 06:17:08;;;;;;;5.97;0.97;;;11.50;99.90;;;;;;5071492;28;20216;-67
2023/01/14 06:19:33;;;;;;;4.73;0.60;;;11.50;99.90;;;;;;5064481;28;20291;-67
2023/01/14 06:21:59;;;;;;;6.13;0.93;;;11.60;99.90;;;;;;5071797;28;20306;-67
2023/01/14 06:24:25;;;;;;;4.40;0.90;;;11.60;99.90;;;;;;5072513;28;20642;-67
2023/01/14 06:26:50;;;;;;;6.97;1.13;;;11.60;99.90;;;;;;5055232;28;20188;-66
2023/01/14 06:29:16;;;;;;;7.90;0.87;;;11.60;99.90;;;;;;5059119;28;20256;-62
2023/01/14 06:31:42;;;;;;;6.70;1.30;;;11.60;99.90;;;;;;5072191;28;20578;-63
2023/01/14 06:34:08;;;;;;;4.97;1.00;;;11.60;99.90;;;;;;5072501;28;20248;-68
2023/01/14 06:36:34;;;;;;;3.83;0.80;;;11.70;99.90;;;;;;5072031;28;20181;-67
2023/01/14 06:39:00;;;;;;;4.93;0.63;;;11.70;99.90;;;;;;5072453;28;20653;-68
2023/01/14 06:41:26;;;;;;;11.53;1.10;;;11.70;99.90;;;;;;5072040;28;20184;-68
2023/01/14 06:43:51;;;;;;;5.20;1.10;;;11.70;99.90;;;;;;5071855;28;20539;-67
2023/01/14 06:46:17;;;;;;;3.50;0.97;;;11.60;99.90;;;;;;5071815;28;20173;-68
2023/01/14 06:48:44;;;;;;;5.73;0.87;;;11.70;99.90;;;;;;5071947;28;20216;-67
2023/01/14 06:51:13;;;;;;;5.93;0.63;;;11.70;99.90;;;;;;5072054;28;20176;-68
2023/01/14 06:53:40;;;;;;;4.27;0.53;;;11.70;99.90;;;;;;5070693;28;20275;-68
2023/01/14 06:56:08;;;;;;;2.67;0.60;;;11.80;99.90;;;;;;5071917;28;20176;-68
2023/01/14 06:58:34;;;;;;;4.10;0.63;;;11.80;99.90;;;;;;5071568;28;20184;-70
2023/01/14 07:01:01;;;;;;;2.37;0.40;;;11.80;99.90;;;;;;5071368;28;20184;-69
2023/01/14 07:03:27;;;;;;;3.90;0.50;;;11.90;99.90;;;;;;5071595;28;20216;-70
2023/01/14 07:05:53;;;;;;;5.57;0.43;;;11.90;99.90;;;;;;5071933;28;20177;-70
2023/01/14 07:08:20;;;;;;;2.40;0.30;;;12.00;99.90;;;;;;5071996;28;20294;-71
2023/01/14 07:10:50;;;;;;;2.63;0.40;;;11.90;99.90;;;;;;5071236;28;20189;-71
2023/01/14 07:13:17;;;;;;;2.73;0.40;;;12.00;99.90;;;;;;5054252;28;20260;-70
2023/01/14 07:15:43;;;;;;;2.77;0.20;;;12.10;99.90;;;;;;5063206;28;20208;-70
2023/01/14 07:18:10;;;;;;;1.27;0.30;;;12.00;99.90;;;;;;5067960;28;20220;-70
2023/01/14 07:20:36;;;;;;;1.07;0.20;;;12.10;99.90;;;;;;5063971;28;20180;-70
2023/01/14 07:23:02;;;;;;;1.10;0.30;;;12.10;99.90;;;;;;5057632;28;20216;-69
2023/01/14 07:25:28;;;;;;;1.47;0.20;;;12.10;99.90;;;;;;5068053;28;20240;-70
2023/01/14 07:27:53;;;;;;;2.13;0.30;;;12.20;99.90;;;;;;5070661;28;20547;-70
2023/01/14 07:30:19;;;;;;;2.07;0.20;;;12.30;99.90;;;;;;5070607;28;20506;-70
2023/01/14 07:32:44;;;;;;;0.20;0.10;;;12.20;99.90;;;;;;5070985;28;20207;-71
2023/01/14 07:35:10;;;;;;;1.10;0.10;;;12.20;99.90;;;;;;5071081;28;20175;-71
2023/01/14 07:37:36;;;;;;;0.20;0.00;;;12.40;99.90;;;;;;5069551;28;20215;-70
2023/01/14 07:40:02;;;;;;;0.53;0.03;;;12.20;99.90;;;;;;5070897;28;20583;-71
2023/01/14 07:42:28;;;;;;;2.23;0.10;;;12.20;99.90;;;;;;5071135;28;20204;-71
2023/01/14 07:44:53;;;;;;;0.20;0.10;;;12.30;99.90;;;;;;5071087;28;20511;-70
2023/01/14 07:47:19;;;;;;;1.40;0.20;;;12.30;99.90;;;;;;5071142;28;20168;-70
2023/01/14 07:49:45;;;;;;;1.50;0.30;;;12.30;99.90;;;;;;5068879;28;20191;-69
2023/01/14 07:52:13;;;;;;;0.57;0.17;;;12.30;99.90;;;;;;5070931;28;20597;-65
2023/01/14 07:54:40;;;;;;;1.00;0.10;;;12.30;99.90;;;;;;5070800;28;20180;-66
2023/01/14 07:57:11;;;;;;;1.80;0.20;;;12.20;99.90;;;;;;5070827;28;20184;-66
2023/01/14 07:59:38;;;;;;;2.53;0.37;;;12.30;99.90;;;;;;5070860;28;20175;-66
2023/01/14 08:02:04;;;;;;;0.47;0.20;;;12.40;99.90;;;;;;5070629;28;20215;-66
2023/01/14 08:04:31;;;;;;;2.10;0.30;;;12.30;99.90;;;;;;5069974;28;20180;-66
2023/01/14 08:06:58;;;;;;;0.80;0.20;;;12.40;99.90;;;;;;5070024;28;20179;-66
2023/01/14 08:09:25;;;;;;;0.07;0.07;;;12.30;99.90;;;;;;5068285;28;20184;-67
2023/01/14 08:11:51;;;;;;;0.30;0.07;;;12.60;99.90;;;;;;5062280;28;20313;-66
2023/01/14 08:14:16;;;;;;;1.13;0.10;;;12.40;99.90;;;;;;5059890;28;20177;-67
2023/01/14 08:16:42;;;;;;;0.20;0.00;;;12.20;99.90;;;;;;5068809;28;20647;-66
2023/01/14 08:19:08;;;;;;;0.20;0.20;;;12.30;99.90;;;;;;5070496;28;20184;-65
2023/01/14 08:21:33;;;;;;;0.10;0.07;;;12.60;99.90;;;;;;5070501;28;20176;-66
2023/01/14 08:23:59;;;;;;;0.20;0.00;;;12.30;99.90;;;;;;5070570;28;20191;-66
2023/01/14 08:26:25;;;;;;;0.43;0.10;;;;;;;;;;5070177;28;20172;-66
2023/01/14 08:28:51;;;;;;;0.43;0.20;;;12.30;99.90;;;;;;5068788;28;20176;-66
2023/01/14 08:31:17;;;;;;;0.50;0.07;;;12.30;99.90;;;;;;5070283;28;20234;-68
2023/01/14 08:33:44;;;;;;;0.47;0.00;;;12.30;99.90;;;;;;5070568;28;20184;-64
2023/01/14 08:36:13;;;;;;;1.70;0.27;;;12.30;99.90;;;;;;5070437;28;20184;-65
2023/01/14 08:38:41;;;;;;;0.20;0.03;;;12.30;99.90;;;;;;5069943;28;20259;-65
2023/01/14 08:41:10;;;;;;;0.27;0.00;;;12.40;99.90;;;;;;5070093;28;20172;-63
2023/01/14 08:43:36;;;;;;;0.30;0.00;;;12.40;99.90;;;;;;5070029;28;20220;-66
2023/01/14 08:46:03;;;;;;;0.50;0.10;;;12.20;99.90;;;;;;5070545;28;20222;-65
2023/01/14 08:48:29;;;;;;;0.40;0.10;;;11.80;99.90;;;;;;5069755;28;20263;-63
2023/01/14 08:51:02;;;;;;;0.73;0.10;;;11.90;99.90;;;;;;5072587;28;20585;-63
2023/01/14 08:53:29;;;;;;;0.20;0.00;;;11.70;99.90;;;;;;5079021;28;20183;-63
2023/01/14 08:55:58;;;;;;;0.77;0.20;;;11.70;99.90;;;;;;5070323;28;20169;-63
2023/01/14 08:58:27;;;;;;;1.50;0.20;;;11.50;99.90;;;;;;5088694;28;20254;-63
2023/01/14 09:01:05;;;;;;;4.20;0.30;;;11.60;99.90;;;;;;5090482;28;20164;-62
2023/01/14 09:03:32;;;;;;;4.47;0.60;;;11.60;99.90;;;;;;5081204;28;20306;-63
2023/01/14 09:05:59;;;;;;;2.47;0.40;;;11.50;99.90;;;;;;5067814;28;20169;-63
2023/01/14 09:17:07;;;;;;;19.90;2.00;;;11.20;99.90;;;;;;5067241;28;20330;-63
2023/01/14 09:19:40;;;;;;;15.53;1.53;;;11.20;99.90;;;;;;5065216;28;20181;-64
2023/01/14 09:22:07;;;;;;;17.27;1.90;;;11.10;99.90;;;;;;5069447;28;20212;-64
2023/01/14 09:24:33;;;;;;;10.23;1.57;;;11.00;99.90;;;;;;5069314;28;20632;-62
2023/01/14 09:26:59;;;;;;;15.33;2.00;;;11.00;99.90;;;;;;5069238;28;20610;-63
2023/01/14 09:29:25;;;;;;;16.27;1.57;;;11.10;99.90;;;;;;5068132;28;20749;-61
2023/01/14 09:31:50;;;;;;;12.40;1.77;;;11.00;99.90;;;;;;5069356;28;20581;-60
2023/01/14 09:34:16;;;;;;;13.07;2.23;;;;;;;;;;5069564;28;20266;-62
2023/01/14 09:36:42;;;;;;;17.20;1.87;;;11.10;99.90;;;;;;5068924;28;20168;-60
2023/01/14 09:39:07;;;;;;;22.70;2.33;;;11.10;99.90;;;;;;5067835;28;20637;-60
2023/01/14 09:41:39;;;;;;;19.90;2.40;;;11.00;99.90;;;;;;5068571;28;20173;-60
2023/01/14 09:44:07;;;;;;;18.03;2.03;;;11.00;99.90;;;;;;5069458;28;20184;-61
2023/01/14 09:46:33;;;;;;;21.93;2.40;;;11.00;99.90;;;;;;5068686;28;20251;-60
2023/01/14 09:49:02;;;;;;;25.70;3.37;;;10.70;99.90;;;;;;5068501;28;20544;-61
2023/01/14 09:51:39;;;;;;;22.00;2.37;;;10.90;99.90;;;;;;5069211;28;20187;-62
2023/01/14 09:54:33;;;;;;;18.73;2.40;;;10.90;99.90;;;;;;5072020;28;20188;-58
2023/01/14 09:57:16;;;;;;;18.13;2.60;;;10.90;99.90;;;;;;5072048;28;20172;-58
2023/01/14 10:00:16;;;;;;;21.87;2.90;;;11.00;99.90;;;;;;5050904;28;20645;-59
2023/01/14 10:02:50;;;;;;;12.90;2.07;;;11.00;99.90;;;;;;5071891;28;20702;-61
2023/01/14 10:05:28;;;;;;;19.07;2.70;;;11.20;99.90;;;;;;5061728;28;20365;-61
2023/01/14 10:08:01;;;;;;;13.73;1.87;;;10.90;99.90;;;;;;5070575;28;20180;-60
2023/01/14 10:10:37;;;;;;;20.27;2.97;;;11.10;99.90;;;;;;5072465;28;20188;-61
2023/01/14 10:13:17;;;;;;;17.53;2.57;;;11.00;99.90;;;;;;5072304;28;20199;-61
2023/01/14 10:15:51;;;;;;;26.17;2.97;;;10.90;99.90;;;;;;5072359;28;20195;-60
2023/01/14 10:18:47;;;;;;;24.73;3.23;;;11.00;99.90;;;;;;5072312;28;20223;-61
2023/01/14 10:21:31;;;;;;;18.10;2.83;;;10.90;99.90;;;;;;5073563;28;20674;-61
2023/01/14 10:23:58;;;;;;;20.20;2.60;;;11.00;99.90;;;;;;5071829;28;20361;-61
2023/01/14 10:26:31;;;;;;;24.63;3.27;;;12.30;99.90;;;;;;5072599;28;20200;-60
2023/01/14 10:29:01;;;;;;;23.90;3.67;;;10.90;99.90;;;;;;5071645;28;20176;-61
2023/01/14 10:31:32;;;;;;;17.60;2.60;;;11.00;99.90;;;;;;5071462;28;20280;-61
2023/01/14 10:33:58;;;;;;;19.80;2.20;;;10.70;99.90;;;;;;5072188;28;20176;-60
2023/01/14 10:36:29;;;;;;;16.20;2.33;;;11.00;99.90;;;;;;5072316;28;20176;-60
2023/01/14 10:38:56;;;;;;;19.97;2.80;;;11.10;99.90;;;;;;5072349;28;20169;-58
2023/01/14 10:41:48;;;;;;;21.47;2.77;;;11.00;99.90;;;;;;5072191;28;20653;-59
2023/01/14 10:44:29;;;;;;;12.50;2.03;;;11.00;99.90;;;;;;5071920;28;20275;-58
2023/01/14 10:47:02;;;;;;;18.90;2.63;;;11.00;99.90;;;;;;5054102;28;20214;-58
2023/01/14 10:49:38;;;;;;;20.20;2.73;;;11.00;99.90;;;;;;5070599;28;20268;-58
2023/01/14 10:52:29;;;;;;;17.57;2.47;;;11.00;99.90;;;;;;5070643;28;20558;-58
2023/01/14 10:54:59;;;;;;;19.37;2.73;;;11.00;99.90;;;;;;5066416;28;20843;-59
2023/01/14 10:57:27;;;;;;;12.30;2.10;;;11.00;99.90;;;;;;5067419;28;20805;-59
2023/01/14 10:59:56;;;;;;;10.10;1.57;;;11.00;99.90;;;;;;5069488;28;20238;-59
2023/01/14 11:02:43;;;;;;;10.63;1.70;;;11.10;99.90;;;;;;5065656;28;20201;-58
2023/01/14 11:05:27;;;;;;;22.47;2.50;;;11.20;99.90;;;;;;5049577;28;20169;-58
2023/01/14 11:07:56;;;;;;;19.90;3.00;;;11.40;99.90;;;;;;5049801;28;20231;-58
2023/01/14 11:10:31;;;;;;;16.67;1.60;;;11.40;99.90;;;;;;5064981;28;20639;-58
2023/01/14 11:13:21;;;;;;;9.77;1.90;;;11.30;99.90;;;;;;5064888;28;20185;-58
2023/01/14 11:15:47;;;;;;;16.03;2.10;;;11.40;99.90;;;;;;5051589;28;20176;-58
2023/01/14 11:18:19;;;;;;;14.97;1.90;;;11.40;99.90;;;;;;5051624;28;20259;-58
2023/01/14 11:21:00;;;;;;;22.10;2.37;;;11.40;99.90;;;;;;5052691;28;20226;-58
2023/01/14 11:23:32;;;;;;;14.30;2.10;;;11.30;99.90;;;;;;5070821;28;20239;-58
2023/01/14 11:26:27;;;;;;;11.70;1.83;;;11.20;99.90;;;;;;5071087;28;20164;-58
2023/01/14 11:29:02;;;;;;;17.33;2.07;;;11.20;99.90;;;;;;5068820;28;20183;-58
2023/01/14 11:31:35;;;;;;;13.23;2.00;;;11.30;99.90;;;;;;5070273;28;20549;-58
2023/01/14 11:34:01;;;;;;;14.10;1.90;;;11.20;99.90;;;;;;5061648;28;20188;-58
2023/01/14 11:36:31;;;;;;;11.47;2.00;;;11.10;99.90;;;;;;5070746;28;20231;-58
2023/01/14 11:38:59;;;;;;;10.20;1.50;;;11.00;99.90;;;;;;5070162;28;20161;-58
2023/01/14 11:41:35;;;;;;;18.27;1.73;;;11.00;99.90;;;;;;5070621;28;20661;-58
2023/01/14 11:44:04;;;;;;;17.03;1.60;;;10.90;99.90;;;;;;5070702;28;20595;-58
2023/01/14 11:46:33;;;;;;;14.77;2.00;;;11.00;99.90;;;;;;5070463;28;20181;-58
2023/01/14 11:49:20;;;;;;;5.67;1.20;;;10.80;99.90;;;;;;5069795;28;20646;-58
2023/01/14 11:52:00;;;;;;;5.07;0.80;;;10.80;99.90;;;;;;5064258;28;20208;-58
2023/01/14 11:54:37;;;;;;;11.30;1.00;;;10.70;99.90;;;;;;5070125;28;20184;-58
2023/01/14 11:57:04;;;;;;;6.97;1.10;;;10.70;99.90;;;;;;5069259;28;20199;-58
2023/01/14 11:59:31;;;;;;;4.90;1.03;;;10.60;99.90;;;;;;5070123;28;20252;-57
2023/01/14 12:02:21;;;;;;;7.70;1.20;;;10.50;99.90;;;;;;5069031;28;20246;-58
2023/01/14 12:04:49;;;;;;;4.27;0.77;;;10.50;99.90;;;;;;5070409;28;20185;-57
2023/01/14 12:07:26;;;;;;;6.63;0.97;;;10.30;99.90;;;;;;5070003;28;20215;-58
2023/01/14 12:10:15;;;;;;;4.90;1.03;;;10.20;99.90;;;;;;5069815;28;20176;-58
2023/01/14 12:18:46;;;;;;;3.17;1.53;;;10.10;99.90;;;;;;5082117;28;20272;-58
2023/01/14 12:21:14;;;;;;;4.60;0.60;;;10.10;99.90;;;;;;5069910;28;20172;-58
2023/01/14 12:23:50;;;;;;;4.83;0.63;;;10.00;99.90;;;;;;5069596;28;20659;-57
2023/01/14 12:26:24;;;;;;;2.73;0.40;;;10.00;99.90;;;;;;5069299;28;20184;-57
2023/01/14 12:28:56;;;;;;;3.90;0.50;;;10.00;99.90;;;;;;5068559;28;20236;-57
2023/01/14 12:31:46;;;;;;;4.03;0.60;;;10.10;99.90;;;;;;5069257;28;20175;-57
2023/01/14 12:34:35;;;;;;;5.63;0.70;;;10.10;99.90;;;;;;5070255;28;20199;-57
2023/01/14 12:37:28;;;;;;;6.80;1.03;;;10.10;99.90;;;;;;5069393;28;20165;-57
2023/01/14 12:45:48;;;;;;;10.50;2.80;;;10.00;99.90;;;;;;5068177;28;20203;-57
2023/01/14 12:48:25;;;;;;;5.90;1.57;;;10.00;99.90;;;;;;5068470;28;20255;-57
2023/01/14 12:51:01;;;;;;;13.73;5.37;;;10.00;99.90;;;;;;5068733;28;20191;-57
2023/01/14 12:53:47;;;;;;;24.27;10.07;;;10.20;99.90;;;;;;5069473;28;20176;-57
2023/01/14 12:56:48;;;;;;;13.47;5.03;;;10.40;99.90;;;;;;5069629;28;20175;-57
2023/01/14 12:59:24;;;;;;;36.73;13.90;;;12.40;99.90;;;;;;5059218;28;20195;-57
2023/01/14 13:01:57;;;;;;;11.13;4.00;;;13.30;99.90;;;;;;5070170;28;20164;-58
2023/01/14 13:04:28;;;;;;;14.13;6.17;;;12.20;99.90;;;;;;5070059;28;20207;-57
2023/01/14 13:07:00;;;;;;;11.73;6.40;;;11.60;99.90;;;;;;5069861;28;20662;-58
2023/01/14 13:09:39;;;;;;;2.63;1.10;;;12.60;99.90;;;;;;5067794;28;20667;-57
2023/01/14 13:12:05;;;;;;;10.07;5.53;;;13.70;99.90;;;;;;5062473;28;20566;-57
2023/01/14 13:14:38;;;;;;;2.57;1.10;;;11.30;99.90;;;;;;5057588;28;20169;-57
2023/01/14 13:17:17;;;;;;;9.10;3.77;;;11.00;99.90;;;;;;5069638;28;20686;-57
2023/01/14 13:19:53;;;;;;;3.43;0.60;;;10.70;99.90;;;;;;5069726;28;20187;-58
2023/01/14 13:22:40;;;;;;;5.83;2.83;;;10.50;99.90;;;;;;5069720;28;20275;-58
2023/01/14 13:25:05;;;;;;;7.27;1.30;;;10.90;99.90;;;;;;5051646;28;20566;-58
2023/01/14 13:27:35;;;;;;;2.07;0.40;;;10.80;99.90;;;;;;5072213;28;20187;-58
2023/01/14 13:30:27;;;;;;;1.43;0.50;;;10.60;99.90;;;;;;5073652;28;20324;-58
2023/01/14 13:32:59;;;;;;;2.77;0.70;;;10.50;99.90;;;;;;5069863;28;20195;-58
2023/01/14 13:35:29;;;;;;;3.27;0.73;;;10.50;99.90;;;;;;5070018;28;20173;-58
2023/01/14 13:37:57;;;;;;;1.67;0.60;;;10.40;99.90;;;;;;5080243;28;20686;-59
2023/01/14 13:40:26;;;;;;;1.77;0.40;;;10.30;99.90;;;;;;5071239;28;20426;-59
2023/01/14 13:43:03;;;;;;;2.90;0.60;;;10.10;99.90;;;;;;5067014;28;20211;-58
2023/01/14 13:45:31;;;;;;;5.70;1.00;;;10.10;99.90;;;;;;5073168;28;20172;-58